sensor_id;sensor_type;location;lat;lon;timestamp;P1;durP1;ratioP1;P2;durP2;ratioP2
60464;SDS011;46314;52.392;9.758;2023-07-28T00:01:13;4.22;;;3.83;;
60464;SDS011;46314;52.392;9.758;2023-07-28T00:03:40;5.43;;;3.88;;
60464;SDS011;46314;52.392;9.758;2023-07-28T00:06:06;4.68;;;4.20;;
60464;SDS011;46314;52.392;9.758;2023-07-28T00:08:33;4.68;;;3.80;;
60464;SDS011;46314;52.392;9.758;2023-07-28T00:11:01;6.88;;;4.28;;
60464;SDS011;46314;52.392;9.758;2023-07-28T00:13:27;4.63;;;4.20;;
60464;SDS011;46314;52.392;9.758;2023-07-28T00:15:54;4.35;;;4.03;;
60464;SDS011;46314;52.392;9.758;2023-07-28T00:18:20;4.93;;;3.47;;
60464;SDS011;46314;52.392;9.758;2023-07-28T00:20:47;6.65;;;4.07;;
60464;SDS011;46314;52.392;9.758;2023-07-28T00:23:13;4.07;;;3.67;;
60464;SDS011;46314;52.392;9.758;2023-07-28T00:25:40;3.55;;;2.65;;
60464;SDS011;46314;52.392;9.758;2023-07-28T00:28:07;5.40;;;3.72;;
60464;SDS011;46314;52.392;9.758;2023-07-28T00:30:34;3.25;;;2.78;;
60464;SDS011;46314;52.392;9.758;2023-07-28T00:33:00;3.72;;;3.42;;
60464;SDS011;46314;52.392;9.758;2023-07-28T00:35:27;3.40;;;3.10;;
60464;SDS011;46314;52.392;9.758;2023-07-28T00:37:53;4.55;;;3.30;;
60464;SDS011;46314;52.392;9.758;2023-07-28T00:40:21;6.70;;;3.03;;
60464;SDS011;46314;52.392;9.758;2023-07-28T00:42:48;4.82;;;2.95;;
60464;SDS011;46314;52.392;9.758;2023-07-28T00:45:16;3.47;;;3.17;;
60464;SDS011;46314;52.392;9.758;2023-07-28T00:47:43;3.78;;;2.75;;
60464;SDS011;46314;52.392;9.758;2023-07-28T00:50:11;2.95;;;2.72;;
60464;SDS011;46314;52.392;9.758;2023-07-28T00:52:38;3.17;;;2.83;;
60464;SDS011;46314;52.392;9.758;2023-07-28T00:55:05;3.38;;;3.08;;
60464;SDS011;46314;52.392;9.758;2023-07-28T00:57:32;4.47;;;3.17;;
60464;SDS011;46314;52.392;9.758;2023-07-28T00:59:59;3.97;;;2.58;;
60464;SDS011;46314;52.392;9.758;2023-07-28T01:02:27;4.60;;;3.00;;
60464;SDS011;46314;52.392;9.758;2023-07-28T01:04:54;3.55;;;3.25;;
60464;SDS011;46314;52.392;9.758;2023-07-28T01:07:22;3.38;;;2.97;;
60464;SDS011;46314;52.392;9.758;2023-07-28T01:09:57;3.10;;;2.80;;
60464;SDS011;46314;52.392;9.758;2023-07-28T01:12:29;3.75;;;3.20;;
60464;SDS011;46314;52.392;9.758;2023-07-28T01:14:55;3.33;;;3.00;;
60464;SDS011;46314;52.392;9.758;2023-07-28T01:17:22;3.58;;;3.28;;
60464;SDS011;46314;52.392;9.758;2023-07-28T01:19:50;4.72;;;2.85;;
60464;SDS011;46314;52.392;9.758;2023-07-28T01:22:21;4.18;;;3.25;;
60464;SDS011;46314;52.392;9.758;2023-07-28T01:25:11;4.82;;;3.45;;
60464;SDS011;46314;52.392;9.758;2023-07-28T01:27:45;3.72;;;3.05;;
60464;SDS011;46314;52.392;9.758;2023-07-28T01:30:13;6.40;;;3.45;;
60464;SDS011;46314;52.392;9.758;2023-07-28T01:32:40;3.78;;;3.47;;
60464;SDS011;46314;52.392;9.758;2023-07-28T01:35:07;4.03;;;3.40;;
60464;SDS011;46314;52.392;9.758;2023-07-28T01:37:34;6.20;;;2.90;;
60464;SDS011;46314;52.392;9.758;2023-07-28T01:40:01;5.50;;;3.67;;
60464;SDS011;46314;52.392;9.758;2023-07-28T01:42:28;3.70;;;2.70;;
60464;SDS011;46314;52.392;9.758;2023-07-28T01:44:55;5.82;;;3.47;;
60464;SDS011;46314;52.392;9.758;2023-07-28T01:47:22;3.80;;;2.72;;
60464;SDS011;46314;52.392;9.758;2023-07-28T01:49:48;4.05;;;3.13;;
60464;SDS011;46314;52.392;9.758;2023-07-28T01:52:15;3.90;;;2.85;;
60464;SDS011;46314;52.392;9.758;2023-07-28T01:54:41;3.88;;;2.85;;
60464;SDS011;46314;52.392;9.758;2023-07-28T01:57:08;3.17;;;2.78;;
60464;SDS011;46314;52.392;9.758;2023-07-28T01:59:34;4.07;;;2.70;;
60464;SDS011;46314;52.392;9.758;2023-07-28T02:02:02;4.57;;;3.00;;
60464;SDS011;46314;52.392;9.758;2023-07-28T02:04:29;3.10;;;2.80;;
60464;SDS011;46314;52.392;9.758;2023-07-28T02:06:55;4.28;;;2.97;;
60464;SDS011;46314;52.392;9.758;2023-07-28T02:09:22;3.83;;;2.83;;
60464;SDS011;46314;52.392;9.758;2023-07-28T02:11:48;5.63;;;3.22;;
60464;SDS011;46314;52.392;9.758;2023-07-28T02:14:15;3.53;;;3.00;;
60464;SDS011;46314;52.392;9.758;2023-07-28T02:16:41;5.40;;;3.72;;
60464;SDS011;46314;52.392;9.758;2023-07-28T02:19:09;4.20;;;3.75;;
60464;SDS011;46314;52.392;9.758;2023-07-28T02:21:36;4.38;;;3.83;;
60464;SDS011;46314;52.392;9.758;2023-07-28T02:24:02;4.35;;;3.40;;
60464;SDS011;46314;52.392;9.758;2023-07-28T02:26:29;11.40;;;3.80;;
60464;SDS011;46314;52.392;9.758;2023-07-28T02:28:56;4.25;;;3.58;;
60464;SDS011;46314;52.392;9.758;2023-07-28T02:31:22;4.60;;;3.60;;
60464;SDS011;46314;52.392;9.758;2023-07-28T02:33:49;5.47;;;3.28;;
60464;SDS011;46314;52.392;9.758;2023-07-28T02:36:17;2.95;;;2.65;;
60464;SDS011;46314;52.392;9.758;2023-07-28T02:38:43;3.75;;;2.70;;
60464;SDS011;46314;52.392;9.758;2023-07-28T02:41:10;3.75;;;3.22;;
60464;SDS011;46314;52.392;9.758;2023-07-28T02:43:37;5.35;;;3.35;;
60464;SDS011;46314;52.392;9.758;2023-07-28T02:46:04;5.00;;;3.30;;
60464;SDS011;46314;52.392;9.758;2023-07-28T02:48:31;5.85;;;3.08;;
60464;SDS011;46314;52.392;9.758;2023-07-28T02:50:57;5.43;;;3.67;;
60464;SDS011;46314;52.392;9.758;2023-07-28T02:53:25;3.47;;;3.17;;
60464;SDS011;46314;52.392;9.758;2023-07-28T02:55:52;3.40;;;3.10;;
60464;SDS011;46314;52.392;9.758;2023-07-28T02:58:18;4.10;;;3.47;;
60464;SDS011;46314;52.392;9.758;2023-07-28T03:00:44;3.88;;;3.05;;
60464;SDS011;46314;52.392;9.758;2023-07-28T03:03:11;3.90;;;2.90;;
60464;SDS011;46314;52.392;9.758;2023-07-28T03:05:38;5.45;;;3.22;;
60464;SDS011;46314;52.392;9.758;2023-07-28T03:08:05;5.05;;;3.10;;
60464;SDS011;46314;52.392;9.758;2023-07-28T03:10:33;3.78;;;3.25;;
60464;SDS011;46314;52.392;9.758;2023-07-28T03:13:00;3.15;;;2.83;;
60464;SDS011;46314;52.392;9.758;2023-07-28T03:15:26;3.83;;;3.50;;
60464;SDS011;46314;52.392;9.758;2023-07-28T03:17:53;4.70;;;3.60;;
60464;SDS011;46314;52.392;9.758;2023-07-28T03:20:19;3.42;;;2.95;;
60464;SDS011;46314;52.392;9.758;2023-07-28T03:22:46;3.00;;;2.70;;
60464;SDS011;46314;52.392;9.758;2023-07-28T03:25:12;4.85;;;2.97;;
60464;SDS011;46314;52.392;9.758;2023-07-28T03:27:40;4.10;;;2.63;;
60464;SDS011;46314;52.392;9.758;2023-07-28T03:30:07;3.42;;;2.80;;
60464;SDS011;46314;52.392;9.758;2023-07-28T03:32:34;3.38;;;2.47;;
60464;SDS011;46314;52.392;9.758;2023-07-28T03:35:00;2.80;;;2.40;;
60464;SDS011;46314;52.392;9.758;2023-07-28T03:37:27;2.95;;;2.42;;
60464;SDS011;46314;52.392;9.758;2023-07-28T03:39:53;5.18;;;2.80;;
60464;SDS011;46314;52.392;9.758;2023-07-28T03:42:20;4.88;;;2.20;;
60464;SDS011;46314;52.392;9.758;2023-07-28T03:44:47;2.60;;;2.40;;
60464;SDS011;46314;52.392;9.758;2023-07-28T03:47:14;3.45;;;2.80;;
60464;SDS011;46314;52.392;9.758;2023-07-28T03:49:41;3.03;;;2.63;;
60464;SDS011;46314;52.392;9.758;2023-07-28T03:52:07;4.43;;;2.65;;
60464;SDS011;46314;52.392;9.758;2023-07-28T03:54:34;3.83;;;2.33;;
60464;SDS011;46314;52.392;9.758;2023-07-28T03:57:00;5.30;;;2.50;;
60464;SDS011;46314;52.392;9.758;2023-07-28T03:59:27;2.83;;;2.30;;
60464;SDS011;46314;52.392;9.758;2023-07-28T04:01:55;2.55;;;2.35;;
60464;SDS011;46314;52.392;9.758;2023-07-28T04:04:21;2.03;;;1.83;;
60464;SDS011;46314;52.392;9.758;2023-07-28T04:06:48;4.20;;;2.00;;
60464;SDS011;46314;52.392;9.758;2023-07-28T04:09:15;2.70;;;2.08;;
60464;SDS011;46314;52.392;9.758;2023-07-28T04:11:42;4.45;;;2.45;;
60464;SDS011;46314;52.392;9.758;2023-07-28T04:14:09;4.85;;;2.25;;
60464;SDS011;46314;52.392;9.758;2023-07-28T04:16:35;3.70;;;2.10;;
60464;SDS011;46314;52.392;9.758;2023-07-28T04:19:04;2.20;;;2.00;;
60464;SDS011;46314;52.392;9.758;2023-07-28T04:21:30;2.95;;;2.08;;
60464;SDS011;46314;52.392;9.758;2023-07-28T04:23:57;5.65;;;2.50;;
60464;SDS011;46314;52.392;9.758;2023-07-28T04:26:24;2.47;;;2.15;;
60464;SDS011;46314;52.392;9.758;2023-07-28T04:28:51;4.60;;;2.22;;
60464;SDS011;46314;52.392;9.758;2023-07-28T04:31:17;2.78;;;1.80;;
60464;SDS011;46314;52.392;9.758;2023-07-28T04:33:44;3.10;;;2.00;;
60464;SDS011;46314;52.392;9.758;2023-07-28T04:36:12;3.28;;;1.92;;
60464;SDS011;46314;52.392;9.758;2023-07-28T04:38:38;3.25;;;1.70;;
60464;SDS011;46314;52.392;9.758;2023-07-28T04:41:05;6.50;;;1.70;;
60464;SDS011;46314;52.392;9.758;2023-07-28T04:43:31;4.25;;;2.40;;
60464;SDS011;46314;52.392;9.758;2023-07-28T04:45:58;2.58;;;1.90;;
60464;SDS011;46314;52.392;9.758;2023-07-28T04:48:24;3.08;;;2.03;;
60464;SDS011;46314;52.392;9.758;2023-07-28T04:50:51;2.22;;;2.03;;
60464;SDS011;46314;52.392;9.758;2023-07-28T04:53:19;3.13;;;1.77;;
60464;SDS011;46314;52.392;9.758;2023-07-28T04:55:46;1.95;;;1.73;;
60464;SDS011;46314;52.392;9.758;2023-07-28T04:58:12;2.40;;;2.17;;
60464;SDS011;46314;52.392;9.758;2023-07-28T05:00:39;2.33;;;2.00;;
60464;SDS011;46314;52.392;9.758;2023-07-28T05:03:05;3.35;;;1.98;;
60464;SDS011;46314;52.392;9.758;2023-07-28T05:05:32;2.00;;;1.58;;
60464;SDS011;46314;52.392;9.758;2023-07-28T05:07:58;2.85;;;1.70;;
60464;SDS011;46314;52.392;9.758;2023-07-28T05:10:26;7.13;;;2.20;;
60464;SDS011;46314;52.392;9.758;2023-07-28T05:12:52;4.00;;;2.20;;
60464;SDS011;46314;52.392;9.758;2023-07-28T05:15:20;2.13;;;1.90;;
60464;SDS011;46314;52.392;9.758;2023-07-28T05:17:47;2.05;;;1.85;;
60464;SDS011;46314;52.392;9.758;2023-07-28T05:20:14;2.42;;;2.22;;
60464;SDS011;46314;52.392;9.758;2023-07-28T05:22:40;2.47;;;2.28;;
60464;SDS011;46314;52.392;9.758;2023-07-28T05:25:07;2.30;;;2.10;;
60464;SDS011;46314;52.392;9.758;2023-07-28T05:27:35;3.17;;;2.70;;
60464;SDS011;46314;52.392;9.758;2023-07-28T05:30:01;5.00;;;3.08;;
60464;SDS011;46314;52.392;9.758;2023-07-28T05:32:28;3.05;;;2.72;;
60464;SDS011;46314;52.392;9.758;2023-07-28T05:34:54;3.33;;;2.40;;
60464;SDS011;46314;52.392;9.758;2023-07-28T05:37:21;3.70;;;2.20;;
60464;SDS011;46314;52.392;9.758;2023-07-28T05:39:47;2.88;;;2.40;;
60464;SDS011;46314;52.392;9.758;2023-07-28T05:42:14;3.05;;;2.78;;
60464;SDS011;46314;52.392;9.758;2023-07-28T05:44:42;2.17;;;1.92;;
60464;SDS011;46314;52.392;9.758;2023-07-28T05:47:09;3.13;;;2.55;;
60464;SDS011;46314;52.392;9.758;2023-07-28T05:49:35;3.80;;;3.40;;
60464;SDS011;46314;52.392;9.758;2023-07-28T05:52:02;4.07;;;3.15;;
60464;SDS011;46314;52.392;9.758;2023-07-28T05:54:28;3.33;;;2.95;;
60464;SDS011;46314;52.392;9.758;2023-07-28T05:56:55;3.50;;;3.20;;
60464;SDS011;46314;52.392;9.758;2023-07-28T05:59:21;4.63;;;3.63;;
60464;SDS011;46314;52.392;9.758;2023-07-28T06:01:49;2.97;;;2.67;;
60464;SDS011;46314;52.392;9.758;2023-07-28T06:04:15;3.80;;;3.40;;
60464;SDS011;46314;52.392;9.758;2023-07-28T06:06:42;3.55;;;2.92;;
60464;SDS011;46314;52.392;9.758;2023-07-28T06:09:09;3.10;;;2.67;;
60464;SDS011;46314;52.392;9.758;2023-07-28T06:11:35;4.53;;;3.40;;
60464;SDS011;46314;52.392;9.758;2023-07-28T06:14:02;3.63;;;3.05;;
60464;SDS011;46314;52.392;9.758;2023-07-28T06:16:28;4.13;;;3.25;;
60464;SDS011;46314;52.392;9.758;2023-07-28T06:18:56;2.85;;;2.63;;
60464;SDS011;46314;52.392;9.758;2023-07-28T06:21:23;4.13;;;3.47;;
60464;SDS011;46314;52.392;9.758;2023-07-28T06:23:49;4.50;;;3.58;;
60464;SDS011;46314;52.392;9.758;2023-07-28T06:26:16;3.20;;;2.90;;
60464;SDS011;46314;52.392;9.758;2023-07-28T06:28:42;4.45;;;3.58;;
60464;SDS011;46314;52.392;9.758;2023-07-28T06:31:09;3.92;;;3.35;;
60464;SDS011;46314;52.392;9.758;2023-07-28T06:33:36;3.88;;;2.30;;
60464;SDS011;46314;52.392;9.758;2023-07-28T06:36:04;3.85;;;2.83;;
60464;SDS011;46314;52.392;9.758;2023-07-28T06:38:31;5.05;;;2.92;;
60464;SDS011;46314;52.392;9.758;2023-07-28T06:40:57;3.13;;;2.75;;
60464;SDS011;46314;52.392;9.758;2023-07-28T06:43:24;3.17;;;2.70;;
60464;SDS011;46314;52.392;9.758;2023-07-28T06:45:51;3.97;;;2.83;;
60464;SDS011;46314;52.392;9.758;2023-07-28T06:48:17;2.75;;;2.55;;
60464;SDS011;46314;52.392;9.758;2023-07-28T06:50:44;4.32;;;2.70;;
60464;SDS011;46314;52.392;9.758;2023-07-28T06:53:12;4.10;;;3.55;;
60464;SDS011;46314;52.392;9.758;2023-07-28T06:55:38;4.65;;;3.28;;
60464;SDS011;46314;52.392;9.758;2023-07-28T06:58:05;4.10;;;3.67;;
60464;SDS011;46314;52.392;9.758;2023-07-28T07:00:31;5.43;;;3.30;;
60464;SDS011;46314;52.392;9.758;2023-07-28T07:02:58;5.30;;;2.90;;
60464;SDS011;46314;52.392;9.758;2023-07-28T07:05:24;3.22;;;2.92;;
60464;SDS011;46314;52.392;9.758;2023-07-28T07:07:51;3.03;;;2.42;;
60464;SDS011;46314;52.392;9.758;2023-07-28T07:10:19;3.55;;;2.60;;
60464;SDS011;46314;52.392;9.758;2023-07-28T07:12:45;3.22;;;2.88;;
60464;SDS011;46314;52.392;9.758;2023-07-28T07:15:12;2.90;;;2.67;;
60464;SDS011;46314;52.392;9.758;2023-07-28T07:17:38;3.20;;;2.90;;
60464;SDS011;46314;52.392;9.758;2023-07-28T07:20:06;3.92;;;3.10;;
60464;SDS011;46314;52.392;9.758;2023-07-28T07:22:33;5.78;;;3.67;;
60464;SDS011;46314;52.392;9.758;2023-07-28T07:24:59;5.32;;;3.63;;
60464;SDS011;46314;52.392;9.758;2023-07-28T07:27:27;2.85;;;2.65;;
60464;SDS011;46314;52.392;9.758;2023-07-28T07:29:54;4.13;;;2.92;;
60464;SDS011;46314;52.392;9.758;2023-07-28T07:32:20;3.67;;;2.60;;
60464;SDS011;46314;52.392;9.758;2023-07-28T07:34:47;3.42;;;2.72;;
60464;SDS011;46314;52.392;9.758;2023-07-28T07:37:13;3.42;;;2.85;;
60464;SDS011;46314;52.392;9.758;2023-07-28T07:39:40;2.92;;;2.72;;
60464;SDS011;46314;52.392;9.758;2023-07-28T07:42:06;4.85;;;2.78;;
60464;SDS011;46314;52.392;9.758;2023-07-28T07:44:36;6.03;;;3.70;;
60464;SDS011;46314;52.392;9.758;2023-07-28T07:47:11;3.47;;;3.10;;
60464;SDS011;46314;52.392;9.758;2023-07-28T07:49:38;4.18;;;3.20;;
60464;SDS011;46314;52.392;9.758;2023-07-28T07:52:06;3.60;;;3.00;;
60464;SDS011;46314;52.392;9.758;2023-07-28T07:54:33;3.90;;;3.45;;
60464;SDS011;46314;52.392;9.758;2023-07-28T07:57:00;3.67;;;3.30;;
60464;SDS011;46314;52.392;9.758;2023-07-28T07:59:26;4.60;;;3.45;;
60464;SDS011;46314;52.392;9.758;2023-07-28T08:01:54;5.95;;;3.97;;
60464;SDS011;46314;52.392;9.758;2023-07-28T08:04:21;4.53;;;3.28;;
60464;SDS011;46314;52.392;9.758;2023-07-28T08:06:47;4.07;;;3.47;;
60464;SDS011;46314;52.392;9.758;2023-07-28T08:09:14;3.55;;;2.92;;
60464;SDS011;46314;52.392;9.758;2023-07-28T08:11:41;3.75;;;3.45;;
60464;SDS011;46314;52.392;9.758;2023-07-28T08:14:07;4.80;;;3.17;;
60464;SDS011;46314;52.392;9.758;2023-07-28T08:16:34;3.95;;;3.55;;
60464;SDS011;46314;52.392;9.758;2023-07-28T08:19:02;4.28;;;3.15;;
60464;SDS011;46314;52.392;9.758;2023-07-28T08:21:28;4.50;;;3.00;;
60464;SDS011;46314;52.392;9.758;2023-07-28T08:23:55;3.22;;;2.92;;
60464;SDS011;46314;52.392;9.758;2023-07-28T08:26:21;4.50;;;3.05;;
60464;SDS011;46314;52.392;9.758;2023-07-28T08:28:48;3.33;;;3.03;;
60464;SDS011;46314;52.392;9.758;2023-07-28T08:31:14;3.38;;;3.08;;
60464;SDS011;46314;52.392;9.758;2023-07-28T08:33:41;5.85;;;3.28;;
60464;SDS011;46314;52.392;9.758;2023-07-28T08:36:08;3.70;;;2.88;;
60464;SDS011;46314;52.392;9.758;2023-07-28T08:38:35;3.60;;;2.90;;
60464;SDS011;46314;52.392;9.758;2023-07-28T08:41:01;2.50;;;2.30;;
60464;SDS011;46314;52.392;9.758;2023-07-28T08:43:28;4.22;;;3.20;;
60464;SDS011;46314;52.392;9.758;2023-07-28T08:45:55;3.13;;;2.40;;
60464;SDS011;46314;52.392;9.758;2023-07-28T08:48:22;3.10;;;2.33;;
60464;SDS011;46314;52.392;9.758;2023-07-28T08:50:48;2.80;;;2.60;;
60464;SDS011;46314;52.392;9.758;2023-07-28T08:53:17;3.40;;;2.58;;
60464;SDS011;46314;52.392;9.758;2023-07-28T08:55:44;4.00;;;2.72;;
60464;SDS011;46314;52.392;9.758;2023-07-28T08:58:14;3.13;;;2.45;;
60464;SDS011;46314;52.392;9.758;2023-07-28T09:00:41;2.92;;;2.63;;
60464;SDS011;46314;52.392;9.758;2023-07-28T09:03:08;2.50;;;2.30;;
60464;SDS011;46314;52.392;9.758;2023-07-28T09:05:34;2.08;;;1.95;;
60464;SDS011;46314;52.392;9.758;2023-07-28T09:08:01;3.20;;;2.90;;
60464;SDS011;46314;52.392;9.758;2023-07-28T09:10:40;2.88;;;2.58;;
60464;SDS011;46314;52.392;9.758;2023-07-28T09:13:08;2.25;;;2.08;;
60464;SDS011;46314;52.392;9.758;2023-07-28T09:15:35;3.05;;;2.50;;
60464;SDS011;46314;52.392;9.758;2023-07-28T09:18:02;5.43;;;2.40;;
60464;SDS011;46314;52.392;9.758;2023-07-28T09:20:33;3.78;;;2.00;;
60464;SDS011;46314;52.392;9.758;2023-07-28T09:23:00;3.35;;;2.13;;
60464;SDS011;46314;52.392;9.758;2023-07-28T09:25:28;2.97;;;2.65;;
60464;SDS011;46314;52.392;9.758;2023-07-28T09:27:57;3.50;;;2.63;;
60464;SDS011;46314;52.392;9.758;2023-07-28T09:30:25;4.07;;;3.03;;
60464;SDS011;46314;52.392;9.758;2023-07-28T09:32:53;3.15;;;2.17;;
60464;SDS011;46314;52.392;9.758;2023-07-28T09:35:21;3.20;;;2.17;;
60464;SDS011;46314;52.392;9.758;2023-07-28T09:37:49;2.72;;;2.53;;
60464;SDS011;46314;52.392;9.758;2023-07-28T09:40:16;2.50;;;2.30;;
60464;SDS011;46314;52.392;9.758;2023-07-28T09:42:44;2.83;;;2.63;;
60464;SDS011;46314;52.392;9.758;2023-07-28T09:45:13;4.13;;;3.00;;
60464;SDS011;46314;52.392;9.758;2023-07-28T09:47:59;2.80;;;2.60;;
60464;SDS011;46314;52.392;9.758;2023-07-28T09:50:29;4.20;;;2.50;;
60464;SDS011;46314;52.392;9.758;2023-07-28T09:53:00;4.60;;;3.20;;
60464;SDS011;46314;52.392;9.758;2023-07-28T09:55:29;4.80;;;2.75;;
60464;SDS011;46314;52.392;9.758;2023-07-28T09:57:56;4.20;;;2.50;;
60464;SDS011;46314;52.392;9.758;2023-07-28T10:00:25;2.63;;;2.42;;
60464;SDS011;46314;52.392;9.758;2023-07-28T10:02:52;2.72;;;2.53;;
60464;SDS011;46314;52.392;9.758;2023-07-28T10:05:19;2.55;;;2.35;;
60464;SDS011;46314;52.392;9.758;2023-07-28T10:07:47;4.35;;;2.65;;
60464;SDS011;46314;52.392;9.758;2023-07-28T10:10:14;3.78;;;2.80;;
60464;SDS011;46314;52.392;9.758;2023-07-28T10:12:42;3.80;;;2.72;;
60464;SDS011;46314;52.392;9.758;2023-07-28T10:15:12;4.88;;;2.50;;
60464;SDS011;46314;52.392;9.758;2023-07-28T10:17:41;2.97;;;2.70;;
60464;SDS011;46314;52.392;9.758;2023-07-28T10:23:06;2.47;;;2.28;;
60464;SDS011;46314;52.392;9.758;2023-07-28T10:25:34;3.13;;;2.63;;
60464;SDS011;46314;52.392;9.758;2023-07-28T10:28:03;4.13;;;2.40;;
60464;SDS011;46314;52.392;9.758;2023-07-28T10:30:35;2.40;;;2.20;;
60464;SDS011;46314;52.392;9.758;2023-07-28T10:33:04;2.25;;;2.08;;
60464;SDS011;46314;52.392;9.758;2023-07-28T10:35:30;2.38;;;2.17;;
60464;SDS011;46314;52.392;9.758;2023-07-28T10:37:57;2.92;;;2.72;;
60464;SDS011;46314;52.392;9.758;2023-07-28T10:40:26;3.22;;;2.47;;
60464;SDS011;46314;52.392;9.758;2023-07-28T10:42:53;3.45;;;2.30;;
60464;SDS011;46314;52.392;9.758;2023-07-28T10:45:22;2.35;;;2.15;;
60464;SDS011;46314;52.392;9.758;2023-07-28T10:47:51;2.22;;;1.80;;
60464;SDS011;46314;52.392;9.758;2023-07-28T10:50:20;2.05;;;1.90;;
60464;SDS011;46314;52.392;9.758;2023-07-28T10:52:47;3.15;;;2.13;;
60464;SDS011;46314;52.392;9.758;2023-07-28T10:55:13;3.28;;;2.33;;
60464;SDS011;46314;52.392;9.758;2023-07-28T10:57:41;3.78;;;2.25;;
60464;SDS011;46314;52.392;9.758;2023-07-28T11:00:08;2.67;;;1.95;;
60464;SDS011;46314;52.392;9.758;2023-07-28T11:02:37;2.47;;;2.05;;
60464;SDS011;46314;52.392;9.758;2023-07-28T11:05:05;3.88;;;2.15;;
60464;SDS011;46314;52.392;9.758;2023-07-28T11:07:37;3.08;;;2.60;;
60464;SDS011;46314;52.392;9.758;2023-07-28T11:10:03;3.15;;;2.42;;
60464;SDS011;46314;52.392;9.758;2023-07-28T11:12:40;4.10;;;2.70;;
60464;SDS011;46314;52.392;9.758;2023-07-28T11:15:08;3.25;;;2.70;;
60464;SDS011;46314;52.392;9.758;2023-07-28T11:17:36;3.40;;;2.70;;
60464;SDS011;46314;52.392;9.758;2023-07-28T11:20:03;2.47;;;2.28;;
60464;SDS011;46314;52.392;9.758;2023-07-28T11:22:30;2.40;;;1.90;;
60464;SDS011;46314;52.392;9.758;2023-07-28T11:24:57;3.20;;;2.30;;
60464;SDS011;46314;52.392;9.758;2023-07-28T11:27:24;2.50;;;2.30;;
60464;SDS011;46314;52.392;9.758;2023-07-28T11:29:52;2.92;;;1.80;;
60464;SDS011;46314;52.392;9.758;2023-07-28T11:32:19;2.72;;;2.22;;
60464;SDS011;46314;52.392;9.758;2023-07-28T11:34:47;3.38;;;2.47;;
60464;SDS011;46314;52.392;9.758;2023-07-28T11:37:14;2.75;;;2.55;;
60464;SDS011;46314;52.392;9.758;2023-07-28T11:39:41;4.40;;;2.60;;
60464;SDS011;46314;52.392;9.758;2023-07-28T11:42:08;2.67;;;2.38;;
60464;SDS011;46314;52.392;9.758;2023-07-28T11:44:35;2.90;;;2.60;;
60464;SDS011;46314;52.392;9.758;2023-07-28T11:47:05;2.60;;;2.40;;
60464;SDS011;46314;52.392;9.758;2023-07-28T11:49:34;4.25;;;2.40;;
60464;SDS011;46314;52.392;9.758;2023-07-28T11:52:12;2.80;;;2.58;;
60464;SDS011;46314;52.392;9.758;2023-07-28T11:54:38;3.33;;;2.47;;
60464;SDS011;46314;52.392;9.758;2023-07-28T11:57:05;3.50;;;2.78;;
60464;SDS011;46314;52.392;9.758;2023-07-28T11:59:34;2.72;;;2.47;;
60464;SDS011;46314;52.392;9.758;2023-07-28T12:02:02;3.08;;;2.42;;
60464;SDS011;46314;52.392;9.758;2023-07-28T12:04:35;3.20;;;2.60;;
60464;SDS011;46314;52.392;9.758;2023-07-28T12:09:50;3.85;;;2.53;;
60464;SDS011;46314;52.392;9.758;2023-07-28T12:12:30;2.92;;;2.60;;
60464;SDS011;46314;52.392;9.758;2023-07-28T12:15:18;2.58;;;2.38;;
60464;SDS011;46314;52.392;9.758;2023-07-28T12:18:03;2.83;;;2.33;;
60464;SDS011;46314;52.392;9.758;2023-07-28T12:20:36;3.67;;;2.90;;
60464;SDS011;46314;52.392;9.758;2023-07-28T12:23:05;2.80;;;2.60;;
60464;SDS011;46314;52.392;9.758;2023-07-28T12:25:36;4.47;;;2.30;;
60464;SDS011;46314;52.392;9.758;2023-07-28T12:28:03;3.30;;;2.53;;
60464;SDS011;46314;52.392;9.758;2023-07-28T12:30:30;2.80;;;2.55;;
60464;SDS011;46314;52.392;9.758;2023-07-28T12:32:57;2.72;;;2.53;;
60464;SDS011;46314;52.392;9.758;2023-07-28T12:35:26;3.03;;;2.60;;
60464;SDS011;46314;52.392;9.758;2023-07-28T12:38:15;2.42;;;2.03;;
60464;SDS011;46314;52.392;9.758;2023-07-28T12:40:44;3.58;;;2.50;;
60464;SDS011;46314;52.392;9.758;2023-07-28T12:43:13;3.47;;;2.83;;
60464;SDS011;46314;52.392;9.758;2023-07-28T12:45:43;3.63;;;2.17;;
60464;SDS011;46314;52.392;9.758;2023-07-28T12:48:12;3.38;;;2.17;;
60464;SDS011;46314;52.392;9.758;2023-07-28T12:50:41;3.72;;;2.42;;
60464;SDS011;46314;52.392;9.758;2023-07-28T12:53:08;2.47;;;2.28;;
60464;SDS011;46314;52.392;9.758;2023-07-28T12:55:43;3.45;;;2.83;;
60464;SDS011;46314;52.392;9.758;2023-07-28T12:58:13;2.60;;;2.40;;
60464;SDS011;46314;52.392;9.758;2023-07-28T13:00:42;3.90;;;2.40;;
60464;SDS011;46314;52.392;9.758;2023-07-28T13:03:11;2.63;;;2.30;;
60464;SDS011;46314;52.392;9.758;2023-07-28T13:05:38;2.90;;;2.38;;
60464;SDS011;46314;52.392;9.758;2023-07-28T13:08:05;3.05;;;2.80;;
60464;SDS011;46314;52.392;9.758;2023-07-28T13:10:34;3.10;;;2.55;;
60464;SDS011;46314;52.392;9.758;2023-07-28T13:13:05;2.95;;;2.67;;
60464;SDS011;46314;52.392;9.758;2023-07-28T13:18:04;2.97;;;2.67;;
60464;SDS011;46314;52.392;9.758;2023-07-28T13:20:31;2.95;;;2.47;;
60464;SDS011;46314;52.392;9.758;2023-07-28T13:22:57;2.67;;;2.47;;
60464;SDS011;46314;52.392;9.758;2023-07-28T13:25:23;2.72;;;2.53;;
60464;SDS011;46314;52.392;9.758;2023-07-28T13:27:50;3.20;;;2.90;;
60464;SDS011;46314;52.392;9.758;2023-07-28T13:30:18;5.10;;;3.08;;
60464;SDS011;46314;52.392;9.758;2023-07-28T13:32:46;2.95;;;2.63;;
60464;SDS011;46314;52.392;9.758;2023-07-28T13:35:13;3.17;;;2.97;;
60464;SDS011;46314;52.392;9.758;2023-07-28T13:37:40;4.63;;;2.90;;
60464;SDS011;46314;52.392;9.758;2023-07-28T13:40:07;4.38;;;2.92;;
60464;SDS011;46314;52.392;9.758;2023-07-28T13:42:37;4.60;;;3.05;;
60464;SDS011;46314;52.392;9.758;2023-07-28T13:45:04;3.35;;;2.92;;
60464;SDS011;46314;52.392;9.758;2023-07-28T13:47:33;3.25;;;2.70;;
60464;SDS011;46314;52.392;9.758;2023-07-28T13:49:59;3.45;;;3.15;;
60464;SDS011;46314;52.392;9.758;2023-07-28T13:52:26;4.70;;;3.15;;
60464;SDS011;46314;52.392;9.758;2023-07-28T13:54:53;3.65;;;2.83;;
60464;SDS011;46314;52.392;9.758;2023-07-28T13:57:22;3.90;;;2.92;;
60464;SDS011;46314;52.392;9.758;2023-07-28T13:59:49;3.25;;;2.70;;
60464;SDS011;46314;52.392;9.758;2023-07-28T14:02:16;2.60;;;2.40;;
60464;SDS011;46314;52.392;9.758;2023-07-28T14:04:44;3.55;;;3.25;;
60464;SDS011;46314;52.392;9.758;2023-07-28T14:07:11;3.10;;;2.90;;
60464;SDS011;46314;52.392;9.758;2023-07-28T14:09:37;3.13;;;2.83;;
60464;SDS011;46314;52.392;9.758;2023-07-28T14:12:05;3.28;;;2.97;;
60464;SDS011;46314;52.392;9.758;2023-07-28T14:14:32;3.22;;;2.97;;
60464;SDS011;46314;52.392;9.758;2023-07-28T14:16:59;2.95;;;2.60;;
60464;SDS011;46314;52.392;9.758;2023-07-28T14:19:25;3.00;;;2.70;;
60464;SDS011;46314;52.392;9.758;2023-07-28T14:21:53;3.15;;;2.80;;
60464;SDS011;46314;52.392;9.758;2023-07-28T14:24:20;2.95;;;2.75;;
60464;SDS011;46314;52.392;9.758;2023-07-28T14:26:46;4.38;;;3.15;;
60464;SDS011;46314;52.392;9.758;2023-07-28T14:29:13;2.88;;;2.63;;
60464;SDS011;46314;52.392;9.758;2023-07-28T14:31:39;3.85;;;3.50;;
60464;SDS011;46314;52.392;9.758;2023-07-28T14:34:06;3.28;;;2.60;;
60464;SDS011;46314;52.392;9.758;2023-07-28T14:36:33;2.53;;;2.33;;
60464;SDS011;46314;52.392;9.758;2023-07-28T14:39:01;3.60;;;2.60;;
60464;SDS011;46314;52.392;9.758;2023-07-28T14:41:27;5.45;;;3.40;;
60464;SDS011;46314;52.392;9.758;2023-07-28T14:43:54;2.60;;;2.40;;
60464;SDS011;46314;52.392;9.758;2023-07-28T14:46:20;3.20;;;2.90;;
60464;SDS011;46314;52.392;9.758;2023-07-28T14:48:47;3.35;;;3.05;;
60464;SDS011;46314;52.392;9.758;2023-07-28T14:51:13;2.72;;;2.53;;
60464;SDS011;46314;52.392;9.758;2023-07-28T14:53:39;2.85;;;2.65;;
60464;SDS011;46314;52.392;9.758;2023-07-28T14:56:07;3.47;;;2.60;;
60464;SDS011;46314;52.392;9.758;2023-07-28T14:58:34;3.03;;;2.78;;